sensor_id;sensor_type;location;lat;lon;timestamp;temperature;humidity
26821;DHT22;37186;51.394;5.454;2023-05-29T00:02:03;20.20;52.80
26821;DHT22;37186;51.394;5.454;2023-05-29T00:05:04;20.20;53.10
26821;DHT22;37186;51.394;5.454;2023-05-29T00:08:06;20.10;53.00
26821;DHT22;37186;51.394;5.454;2023-05-29T00:11:06;20.10;53.20
26821;DHT22;37186;51.394;5.454;2023-05-29T00:14:07;20.00;53.20
26821;DHT22;37186;51.394;5.454;2023-05-29T00:17:08;20.00;53.20
26821;DHT22;37186;51.394;5.454;2023-05-29T00:20:10;20.00;53.50
26821;DHT22;37186;51.394;5.454;2023-05-29T00:23:12;19.90;53.30
26821;DHT22;37186;51.394;5.454;2023-05-29T00:26:12;19.90;53.50
26821;DHT22;37186;51.394;5.454;2023-05-29T00:29:14;19.90;53.60
26821;DHT22;37186;51.394;5.454;2023-05-29T00:32:15;19.80;53.80
26821;DHT22;37186;51.394;5.454;2023-05-29T00:35:16;19.80;54.10
26821;DHT22;37186;51.394;5.454;2023-05-29T00:38:16;19.70;53.70
26821;DHT22;37186;51.394;5.454;2023-05-29T00:41:17;19.60;53.80
26821;DHT22;37186;51.394;5.454;2023-05-29T00:44:21;19.60;54.10
26821;DHT22;37186;51.394;5.454;2023-05-29T00:47:22;19.50;53.90
26821;DHT22;37186;51.394;5.454;2023-05-29T00:50:22;19.50;54.10
26821;DHT22;37186;51.394;5.454;2023-05-29T00:53:24;19.50;54.10
26821;DHT22;37186;51.394;5.454;2023-05-29T00:56:25;19.40;54.20
26821;DHT22;37186;51.394;5.454;2023-05-29T00:59:32;19.30;54.20
26821;DHT22;37186;51.394;5.454;2023-05-29T01:02:32;19.30;54.30
26821;DHT22;37186;51.394;5.454;2023-05-29T01:05:34;19.20;54.50
26821;DHT22;37186;51.394;5.454;2023-05-29T01:08:36;19.10;54.20
26821;DHT22;37186;51.394;5.454;2023-05-29T01:15:24;19.10;54.40
26821;DHT22;37186;51.394;5.454;2023-05-29T01:18:51;19.00;54.40
26821;DHT22;37186;51.394;5.454;2023-05-29T01:22:08;18.90;54.30
26821;DHT22;37186;51.394;5.454;2023-05-29T01:25:18;18.80;54.30
26821;DHT22;37186;51.394;5.454;2023-05-29T01:28:21;18.70;54.10
26821;DHT22;37186;51.394;5.454;2023-05-29T01:31:26;18.70;54.30
26821;DHT22;37186;51.394;5.454;2023-05-29T01:34:27;18.60;54.40
26821;DHT22;37186;51.394;5.454;2023-05-29T01:37:27;18.60;54.30
26821;DHT22;37186;51.394;5.454;2023-05-29T01:40:28;18.50;54.00
26821;DHT22;37186;51.394;5.454;2023-05-29T01:43:29;18.40;54.20
26821;DHT22;37186;51.394;5.454;2023-05-29T01:46:30;18.30;54.30
26821;DHT22;37186;51.394;5.454;2023-05-29T01:49:31;18.30;54.30
26821;DHT22;37186;51.394;5.454;2023-05-29T01:52:32;18.20;54.20
26821;DHT22;37186;51.394;5.454;2023-05-29T01:55:32;18.20;54.30
26821;DHT22;37186;51.394;5.454;2023-05-29T01:58:34;18.10;54.20
26821;DHT22;37186;51.394;5.454;2023-05-29T02:01:38;18.10;54.30
26821;DHT22;37186;51.394;5.454;2023-05-29T02:04:39;18.00;54.30
26821;DHT22;37186;51.394;5.454;2023-05-29T02:07:39;17.90;54.30
26821;DHT22;37186;51.394;5.454;2023-05-29T02:10:41;17.90;54.40
26821;DHT22;37186;51.394;5.454;2023-05-29T02:13:42;17.90;54.60
26821;DHT22;37186;51.394;5.454;2023-05-29T02:16:42;17.80;54.40
26821;DHT22;37186;51.394;5.454;2023-05-29T02:19:44;17.80;54.40
26821;DHT22;37186;51.394;5.454;2023-05-29T02:22:45;17.70;54.40
26821;DHT22;37186;51.394;5.454;2023-05-29T02:25:46;17.70;54.50
26821;DHT22;37186;51.394;5.454;2023-05-29T02:28:46;17.60;54.40
26821;DHT22;37186;51.394;5.454;2023-05-29T02:31:47;17.60;54.60
26821;DHT22;37186;51.394;5.454;2023-05-29T02:34:47;17.50;54.50
26821;DHT22;37186;51.394;5.454;2023-05-29T02:37:52;17.50;54.50
26821;DHT22;37186;51.394;5.454;2023-05-29T02:40:52;17.40;54.40
26821;DHT22;37186;51.394;5.454;2023-05-29T02:43:54;17.40;54.60
26821;DHT22;37186;51.394;5.454;2023-05-29T02:46:54;17.40;54.60
26821;DHT22;37186;51.394;5.454;2023-05-29T02:49:55;17.30;54.50
26821;DHT22;37186;51.394;5.454;2023-05-29T02:52:55;17.30;54.70
26821;DHT22;37186;51.394;5.454;2023-05-29T02:55:56;17.20;54.70
26821;DHT22;37186;51.394;5.454;2023-05-29T02:58:57;17.20;54.60
26821;DHT22;37186;51.394;5.454;2023-05-29T03:01:57;17.10;54.70
26821;DHT22;37186;51.394;5.454;2023-05-29T03:04:58;17.10;54.70
26821;DHT22;37186;51.394;5.454;2023-05-29T03:07:58;17.10;54.70
26821;DHT22;37186;51.394;5.454;2023-05-29T03:10:59;17.00;54.60
26821;DHT22;37186;51.394;5.454;2023-05-29T03:13:59;17.00;54.90
26821;DHT22;37186;51.394;5.454;2023-05-29T03:17:00;16.90;54.90
26821;DHT22;37186;51.394;5.454;2023-05-29T03:20:00;16.90;54.90
26821;DHT22;37186;51.394;5.454;2023-05-29T03:23:01;16.80;54.80
26821;DHT22;37186;51.394;5.454;2023-05-29T03:26:02;16.80;55.00
26821;DHT22;37186;51.394;5.454;2023-05-29T03:29:03;16.80;55.00
26821;DHT22;37186;51.394;5.454;2023-05-29T03:32:04;16.70;54.90
26821;DHT22;37186;51.394;5.454;2023-05-29T03:35:05;16.70;55.30
26821;DHT22;37186;51.394;5.454;2023-05-29T03:38:05;16.60;55.10
26821;DHT22;37186;51.394;5.454;2023-05-29T03:41:06;16.60;55.30
26821;DHT22;37186;51.394;5.454;2023-05-29T03:44:06;16.60;55.20
26821;DHT22;37186;51.394;5.454;2023-05-29T03:47:07;16.50;55.40
26821;DHT22;37186;51.394;5.454;2023-05-29T03:50:09;16.50;55.30
26821;DHT22;37186;51.394;5.454;2023-05-29T03:53:10;16.40;55.50
26821;DHT22;37186;51.394;5.454;2023-05-29T03:56:10;16.40;55.60
26821;DHT22;37186;51.394;5.454;2023-05-29T03:59:11;16.30;55.60
26821;DHT22;37186;51.394;5.454;2023-05-29T04:02:11;16.30;55.60
26821;DHT22;37186;51.394;5.454;2023-05-29T04:05:12;16.30;55.80
26821;DHT22;37186;51.394;5.454;2023-05-29T04:08:13;16.20;55.80
26821;DHT22;37186;51.394;5.454;2023-05-29T04:11:14;16.20;55.70
26821;DHT22;37186;51.394;5.454;2023-05-29T04:14:15;16.20;55.70
26821;DHT22;37186;51.394;5.454;2023-05-29T04:17:15;16.10;55.90
26821;DHT22;37186;51.394;5.454;2023-05-29T04:20:16;16.10;56.40
26821;DHT22;37186;51.394;5.454;2023-05-29T04:23:16;16.10;55.90
26821;DHT22;37186;51.394;5.454;2023-05-29T04:26:17;16.10;56.30
26821;DHT22;37186;51.394;5.454;2023-05-29T04:29:17;16.00;56.00
26821;DHT22;37186;51.394;5.454;2023-05-29T04:32:18;16.00;56.10
26821;DHT22;37186;51.394;5.454;2023-05-29T04:35:19;16.00;56.30
26821;DHT22;37186;51.394;5.454;2023-05-29T04:38:20;16.00;56.20
26821;DHT22;37186;51.394;5.454;2023-05-29T04:41:26;16.00;56.20
26821;DHT22;37186;51.394;5.454;2023-05-29T04:44:31;15.90;56.50
26821;DHT22;37186;51.394;5.454;2023-05-29T04:47:32;15.90;56.50
26821;DHT22;37186;51.394;5.454;2023-05-29T04:50:33;15.90;56.60
26821;DHT22;37186;51.394;5.454;2023-05-29T04:53:33;15.90;56.50
26821;DHT22;37186;51.394;5.454;2023-05-29T04:56:34;15.90;56.40
26821;DHT22;37186;51.394;5.454;2023-05-29T04:59:34;15.90;56.50
26821;DHT22;37186;51.394;5.454;2023-05-29T05:02:35;15.80;56.70
26821;DHT22;37186;51.394;5.454;2023-05-29T05:05:37;15.80;56.40
26821;DHT22;37186;51.394;5.454;2023-05-29T05:08:37;15.90;57.50
26821;DHT22;37186;51.394;5.454;2023-05-29T05:11:38;15.80;56.90
26821;DHT22;37186;51.394;5.454;2023-05-29T05:14:38;15.80;57.30
26821;DHT22;37186;51.394;5.454;2023-05-29T05:17:39;15.80;57.10
26821;DHT22;37186;51.394;5.454;2023-05-29T05:20:40;15.80;56.60
26821;DHT22;37186;51.394;5.454;2023-05-29T05:23:40;15.80;57.20
26821;DHT22;37186;51.394;5.454;2023-05-29T05:26:41;15.80;56.70
26821;DHT22;37186;51.394;5.454;2023-05-29T05:29:42;15.80;57.40
26821;DHT22;37186;51.394;5.454;2023-05-29T05:32:42;15.80;57.30
26821;DHT22;37186;51.394;5.454;2023-05-29T05:35:43;15.80;57.00
26821;DHT22;37186;51.394;5.454;2023-05-29T05:38:43;15.80;57.20
26821;DHT22;37186;51.394;5.454;2023-05-29T05:41:44;15.80;57.30
26821;DHT22;37186;51.394;5.454;2023-05-29T05:44:44;15.80;57.10
26821;DHT22;37186;51.394;5.454;2023-05-29T05:47:46;15.70;57.10
26821;DHT22;37186;51.394;5.454;2023-05-29T05:50:46;15.70;57.10
26821;DHT22;37186;51.394;5.454;2023-05-29T05:53:47;15.70;56.90
26821;DHT22;37186;51.394;5.454;2023-05-29T05:56:47;15.80;57.10
26821;DHT22;37186;51.394;5.454;2023-05-29T05:59:48;15.80;57.40
26821;DHT22;37186;51.394;5.454;2023-05-29T06:02:48;15.80;57.50
26821;DHT22;37186;51.394;5.454;2023-05-29T06:05:49;15.80;57.40
26821;DHT22;37186;51.394;5.454;2023-05-29T06:08:51;15.80;57.20
26821;DHT22;37186;51.394;5.454;2023-05-29T06:11:52;15.80;57.10
26821;DHT22;37186;51.394;5.454;2023-05-29T06:14:52;15.80;57.20
26821;DHT22;37186;51.394;5.454;2023-05-29T06:17:53;15.80;57.50
26821;DHT22;37186;51.394;5.454;2023-05-29T06:20:55;15.90;57.50
26821;DHT22;37186;51.394;5.454;2023-05-29T06:23:56;15.90;57.20
26821;DHT22;37186;51.394;5.454;2023-05-29T06:26:57;15.90;57.10
26821;DHT22;37186;51.394;5.454;2023-05-29T06:29:57;15.90;57.00
26821;DHT22;37186;51.394;5.454;2023-05-29T06:32:58;15.80;57.60
26821;DHT22;37186;51.394;5.454;2023-05-29T06:35:58;15.90;57.60
26821;DHT22;37186;51.394;5.454;2023-05-29T06:38:59;15.90;57.80
26821;DHT22;37186;51.394;5.454;2023-05-29T06:41:59;15.90;57.20
26821;DHT22;37186;51.394;5.454;2023-05-29T06:45:01;15.90;57.40
26821;DHT22;37186;51.394;5.454;2023-05-29T06:48:02;15.90;57.20
26821;DHT22;37186;51.394;5.454;2023-05-29T06:51:03;16.00;57.40
26821;DHT22;37186;51.394;5.454;2023-05-29T06:54:08;16.00;57.60
26821;DHT22;37186;51.394;5.454;2023-05-29T06:57:09;16.00;57.50
26821;DHT22;37186;51.394;5.454;2023-05-29T07:00:10;16.00;57.60
26821;DHT22;37186;51.394;5.454;2023-05-29T07:03:11;16.00;57.20
26821;DHT22;37186;51.394;5.454;2023-05-29T07:06:12;16.10;57.50
26821;DHT22;37186;51.394;5.454;2023-05-29T07:09:12;16.10;58.00
26821;DHT22;37186;51.394;5.454;2023-05-29T07:12:13;16.10;57.50
26821;DHT22;37186;51.394;5.454;2023-05-29T07:15:13;16.10;57.40
26821;DHT22;37186;51.394;5.454;2023-05-29T07:18:14;16.10;57.40
26821;DHT22;37186;51.394;5.454;2023-05-29T07:21:17;16.20;57.80
26821;DHT22;37186;51.394;5.454;2023-05-29T07:24:17;16.20;57.50
26821;DHT22;37186;51.394;5.454;2023-05-29T07:27:18;16.20;57.60
26821;DHT22;37186;51.394;5.454;2023-05-29T07:30:18;16.20;57.40
26821;DHT22;37186;51.394;5.454;2023-05-29T07:33:19;16.20;57.00
26821;DHT22;37186;51.394;5.454;2023-05-29T07:36:19;16.30;57.20
26821;DHT22;37186;51.394;5.454;2023-05-29T07:39:20;16.30;57.90
26821;DHT22;37186;51.394;5.454;2023-05-29T07:42:20;16.30;57.10
26821;DHT22;37186;51.394;5.454;2023-05-29T07:45:21;16.40;57.60
26821;DHT22;37186;51.394;5.454;2023-05-29T07:48:21;16.40;57.80
26821;DHT22;37186;51.394;5.454;2023-05-29T07:51:22;16.40;57.30
26821;DHT22;37186;51.394;5.454;2023-05-29T07:54:22;16.50;57.20
26821;DHT22;37186;51.394;5.454;2023-05-29T07:57:23;16.50;57.80
26821;DHT22;37186;51.394;5.454;2023-05-29T08:00:25;16.50;57.40
26821;DHT22;37186;51.394;5.454;2023-05-29T08:03:26;16.50;57.80
26821;DHT22;37186;51.394;5.454;2023-05-29T08:06:27;16.60;57.60
26821;DHT22;37186;51.394;5.454;2023-05-29T08:09:27;16.60;57.00
26821;DHT22;37186;51.394;5.454;2023-05-29T08:12:28;16.60;57.10
26821;DHT22;37186;51.394;5.454;2023-05-29T08:15:28;16.60;57.10
26821;DHT22;37186;51.394;5.454;2023-05-29T08:18:31;16.70;57.30
26821;DHT22;37186;51.394;5.454;2023-05-29T08:21:31;16.70;57.70
26821;DHT22;37186;51.394;5.454;2023-05-29T08:24:32;16.70;57.20
26821;DHT22;37186;51.394;5.454;2023-05-29T08:27:33;16.70;57.60
26821;DHT22;37186;51.394;5.454;2023-05-29T08:30:33;16.80;57.20
26821;DHT22;37186;51.394;5.454;2023-05-29T08:33:34;16.80;57.30
26821;DHT22;37186;51.394;5.454;2023-05-29T08:36:35;16.90;57.40
26821;DHT22;37186;51.394;5.454;2023-05-29T08:39:35;16.90;57.30
26821;DHT22;37186;51.394;5.454;2023-05-29T08:42:43;16.90;57.20
26821;DHT22;37186;51.394;5.454;2023-05-29T08:45:47;17.00;57.10
26821;DHT22;37186;51.394;5.454;2023-05-29T08:48:49;17.00;57.30
26821;DHT22;37186;51.394;5.454;2023-05-29T08:52:02;17.10;57.30
26821;DHT22;37186;51.394;5.454;2023-05-29T08:55:03;17.10;57.20
26821;DHT22;37186;51.394;5.454;2023-05-29T08:58:04;17.10;57.30
26821;DHT22;37186;51.394;5.454;2023-05-29T09:01:05;17.10;57.20
26821;DHT22;37186;51.394;5.454;2023-05-29T09:04:06;17.20;57.30
26821;DHT22;37186;51.394;5.454;2023-05-29T09:07:08;17.20;57.20
26821;DHT22;37186;51.394;5.454;2023-05-29T09:10:09;17.30;57.20
26821;DHT22;37186;51.394;5.454;2023-05-29T09:13:13;17.30;57.20
26821;DHT22;37186;51.394;5.454;2023-05-29T09:16:16;17.40;57.30
26821;DHT22;37186;51.394;5.454;2023-05-29T09:19:16;17.40;57.40
26821;DHT22;37186;51.394;5.454;2023-05-29T09:22:18;17.40;57.30
26821;DHT22;37186;51.394;5.454;2023-05-29T09:25:20;17.40;57.10
26821;DHT22;37186;51.394;5.454;2023-05-29T09:28:22;17.50;57.10
26821;DHT22;37186;51.394;5.454;2023-05-29T09:31:27;17.60;57.20
26821;DHT22;37186;51.394;5.454;2023-05-29T09:34:30;17.60;57.30
26821;DHT22;37186;51.394;5.454;2023-05-29T09:37:31;17.60;57.00
26821;DHT22;37186;51.394;5.454;2023-05-29T09:40:34;17.70;57.10
26821;DHT22;37186;51.394;5.454;2023-05-29T09:43:38;17.70;57.10
26821;DHT22;37186;51.394;5.454;2023-05-29T09:46:43;17.80;57.10
26821;DHT22;37186;51.394;5.454;2023-05-29T09:49:45;17.80;57.10
26821;DHT22;37186;51.394;5.454;2023-05-29T09:52:46;17.90;57.30
26821;DHT22;37186;51.394;5.454;2023-05-29T09:55:47;17.90;57.20
26821;DHT22;37186;51.394;5.454;2023-05-29T09:58:49;18.00;57.20
26821;DHT22;37186;51.394;5.454;2023-05-29T10:02:00;18.00;57.50
26821;DHT22;37186;51.394;5.454;2023-05-29T10:05:01;18.10;57.50
26821;DHT22;37186;51.394;5.454;2023-05-29T10:08:02;18.20;57.50
26821;DHT22;37186;51.394;5.454;2023-05-29T10:11:05;18.20;57.40
26821;DHT22;37186;51.394;5.454;2023-05-29T10:14:17;18.30;57.30
26821;DHT22;37186;51.394;5.454;2023-05-29T10:17:22;18.30;57.20
26821;DHT22;37186;51.394;5.454;2023-05-29T10:20:26;18.40;57.40
26821;DHT22;37186;51.394;5.454;2023-05-29T10:23:28;18.40;57.20
26821;DHT22;37186;51.394;5.454;2023-05-29T10:26:30;18.50;57.10
26821;DHT22;37186;51.394;5.454;2023-05-29T10:29:49;18.50;57.20
26821;DHT22;37186;51.394;5.454;2023-05-29T10:36:26;18.70;57.10
26821;DHT22;37186;51.394;5.454;2023-05-29T10:39:28;18.80;57.10
26821;DHT22;37186;51.394;5.454;2023-05-29T10:42:48;18.80;57.10
26821;DHT22;37186;51.394;5.454;2023-05-29T10:45:49;18.90;57.30
26821;DHT22;37186;51.394;5.454;2023-05-29T10:48:50;19.00;57.20
26821;DHT22;37186;51.394;5.454;2023-05-29T10:51:51;19.00;57.10
26821;DHT22;37186;51.394;5.454;2023-05-29T10:54:54;19.10;57.20
26821;DHT22;37186;51.394;5.454;2023-05-29T10:57:55;19.10;57.10
26821;DHT22;37186;51.394;5.454;2023-05-29T11:00:55;19.20;57.00
26821;DHT22;37186;51.394;5.454;2023-05-29T11:07:33;19.40;57.10
26821;DHT22;37186;51.394;5.454;2023-05-29T11:13:55;19.40;57.00
26821;DHT22;37186;51.394;5.454;2023-05-29T11:16:57;19.50;56.80
26821;DHT22;37186;51.394;5.454;2023-05-29T11:20:02;19.50;56.80
26821;DHT22;37186;51.394;5.454;2023-05-29T11:23:07;19.60;56.80
26821;DHT22;37186;51.394;5.454;2023-05-29T11:26:13;19.70;56.90
26821;DHT22;37186;51.394;5.454;2023-05-29T11:29:14;19.70;56.90
26821;DHT22;37186;51.394;5.454;2023-05-29T11:32:16;19.80;57.00
26821;DHT22;37186;51.394;5.454;2023-05-29T11:35:19;19.80;56.90
26821;DHT22;37186;51.394;5.454;2023-05-29T11:38:22;19.90;56.70
26821;DHT22;37186;51.394;5.454;2023-05-29T11:41:23;19.90;56.60
26821;DHT22;37186;51.394;5.454;2023-05-29T11:44:24;20.00;56.60
26821;DHT22;37186;51.394;5.454;2023-05-29T11:47:24;20.10;56.60
26821;DHT22;37186;51.394;5.454;2023-05-29T11:50:27;20.10;56.50
26821;DHT22;37186;51.394;5.454;2023-05-29T11:53:28;20.20;56.30
26821;DHT22;37186;51.394;5.454;2023-05-29T11:56:29;20.20;56.50
26821;DHT22;37186;51.394;5.454;2023-05-29T11:59:30;20.30;56.30
26821;DHT22;37186;51.394;5.454;2023-05-29T12:02:31;20.30;56.50
26821;DHT22;37186;51.394;5.454;2023-05-29T12:05:48;20.40;56.40
26821;DHT22;37186;51.394;5.454;2023-05-29T12:08:51;20.40;56.30
26821;DHT22;37186;51.394;5.454;2023-05-29T12:11:51;20.50;56.10
26821;DHT22;37186;51.394;5.454;2023-05-29T12:14:52;20.50;56.20
26821;DHT22;37186;51.394;5.454;2023-05-29T12:17:54;20.60;56.30
26821;DHT22;37186;51.394;5.454;2023-05-29T12:21:02;20.60;56.30
26821;DHT22;37186;51.394;5.454;2023-05-29T12:24:04;20.70;55.80
26821;DHT22;37186;51.394;5.454;2023-05-29T12:27:05;20.80;56.00
26821;DHT22;37186;51.394;5.454;2023-05-29T12:30:09;20.80;55.50
26821;DHT22;37186;51.394;5.454;2023-05-29T12:33:25;20.80;55.90
26821;DHT22;37186;51.394;5.454;2023-05-29T12:36:26;20.90;55.70
26821;DHT22;37186;51.394;5.454;2023-05-29T12:39:27;20.90;55.80
26821;DHT22;37186;51.394;5.454;2023-05-29T12:42:28;21.00;55.80
26821;DHT22;37186;51.394;5.454;2023-05-29T12:45:30;21.00;55.80
26821;DHT22;37186;51.394;5.454;2023-05-29T12:48:31;21.10;55.70
26821;DHT22;37186;51.394;5.454;2023-05-29T12:51:31;21.10;55.70
26821;DHT22;37186;51.394;5.454;2023-05-29T12:54:32;21.20;56.10
26821;DHT22;37186;51.394;5.454;2023-05-29T12:57:32;21.20;55.20
26821;DHT22;37186;51.394;5.454;2023-05-29T13:00:38;21.20;55.20
26821;DHT22;37186;51.394;5.454;2023-05-29T13:03:39;21.20;54.90
26821;DHT22;37186;51.394;5.454;2023-05-29T13:06:39;21.30;55.10
26821;DHT22;37186;51.394;5.454;2023-05-29T13:09:40;21.30;55.20
26821;DHT22;37186;51.394;5.454;2023-05-29T13:12:42;21.40;55.30
26821;DHT22;37186;51.394;5.454;2023-05-29T13:15:43;21.40;55.20
26821;DHT22;37186;51.394;5.454;2023-05-29T13:18:44;21.40;55.10
26821;DHT22;37186;51.394;5.454;2023-05-29T13:21:45;21.50;55.20
26821;DHT22;37186;51.394;5.454;2023-05-29T13:24:48;21.50;55.10
26821;DHT22;37186;51.394;5.454;2023-05-29T13:27:49;21.50;55.10
26821;DHT22;37186;51.394;5.454;2023-05-29T13:30:50;21.60;55.10
26821;DHT22;37186;51.394;5.454;2023-05-29T13:33:50;21.60;55.10
26821;DHT22;37186;51.394;5.454;2023-05-29T13:36:51;21.70;55.00
26821;DHT22;37186;51.394;5.454;2023-05-29T13:39:51;21.70;54.60
26821;DHT22;37186;51.394;5.454;2023-05-29T13:42:52;21.70;54.70
26821;DHT22;37186;51.394;5.454;2023-05-29T13:45:52;21.80;54.90
26821;DHT22;37186;51.394;5.454;2023-05-29T13:48:53;21.80;54.10
26821;DHT22;37186;51.394;5.454;2023-05-29T13:51:53;21.80;54.10
26821;DHT22;37186;51.394;5.454;2023-05-29T13:54:54;21.80;54.60
26821;DHT22;37186;51.394;5.454;2023-05-29T13:57:54;21.80;54.10
26821;DHT22;37186;51.394;5.454;2023-05-29T14:00:55;21.90;54.40
26821;DHT22;37186;51.394;5.454;2023-05-29T14:03:56;21.90;54.30
26821;DHT22;37186;51.394;5.454;2023-05-29T14:06:57;21.90;54.30
26821;DHT22;37186;51.394;5.454;2023-05-29T14:09:57;21.90;53.90
26821;DHT22;37186;51.394;5.454;2023-05-29T14:12:58;22.00;54.30
26821;DHT22;37186;51.394;5.454;2023-05-29T14:15:59;22.00;54.00
26821;DHT22;37186;51.394;5.454;2023-05-29T14:19:00;22.10;53.90
26821;DHT22;37186;51.394;5.454;2023-05-29T14:22:01;22.10;53.50
26821;DHT22;37186;51.394;5.454;2023-05-29T14:25:02;22.10;53.40
26821;DHT22;37186;51.394;5.454;2023-05-29T14:28:04;22.10;53.30
26821;DHT22;37186;51.394;5.454;2023-05-29T14:31:06;22.10;52.60
26821;DHT22;37186;51.394;5.454;2023-05-29T14:34:07;22.10;53.00
26821;DHT22;37186;51.394;5.454;2023-05-29T14:37:08;22.10;52.30
26821;DHT22;37186;51.394;5.454;2023-05-29T14:40:09;22.20;53.00
26821;DHT22;37186;51.394;5.454;2023-05-29T14:43:09;22.20;52.00
26821;DHT22;37186;51.394;5.454;2023-05-29T14:46:10;22.30;52.70
26821;DHT22;37186;51.394;5.454;2023-05-29T14:49:10;22.30;52.80
26821;DHT22;37186;51.394;5.454;2023-05-29T14:52:11;22.40;53.00
26821;DHT22;37186;51.394;5.454;2023-05-29T14:55:11;22.50;52.80
26821;DHT22;37186;51.394;5.454;2023-05-29T14:58:12;22.50;51.40
26821;DHT22;37186;51.394;5.454;2023-05-29T15:01:18;22.50;52.20
26821;DHT22;37186;51.394;5.454;2023-05-29T15:04:18;22.60;52.50
26821;DHT22;37186;51.394;5.454;2023-05-29T15:07:19;22.70;52.40
26821;DHT22;37186;51.394;5.454;2023-05-29T15:10:20;22.80;52.50
26821;DHT22;37186;51.394;5.454;2023-05-29T15:13:21;22.80;51.40
26821;DHT22;37186;51.394;5.454;2023-05-29T15:16:22;22.90;52.60
26821;DHT22;37186;51.394;5.454;2023-05-29T15:19:22;23.00;52.50
26821;DHT22;37186;51.394;5.454;2023-05-29T15:22:23;23.10;52.00
26821;DHT22;37186;51.394;5.454;2023-05-29T15:25:23;23.20;52.60
26821;DHT22;37186;51.394;5.454;2023-05-29T15:28:24;23.30;52.60
26821;DHT22;37186;51.394;5.454;2023-05-29T15:31:24;23.40;51.90
26821;DHT22;37186;51.394;5.454;2023-05-29T15:34:25;23.50;52.20
26821;DHT22;37186;51.394;5.454;2023-05-29T15:37:26;23.60;52.30
26821;DHT22;37186;51.394;5.454;2023-05-29T15:40:26;23.70;52.20
26821;DHT22;37186;51.394;5.454;2023-05-29T15:43:27;23.80;51.80
26821;DHT22;37186;51.394;5.454;2023-05-29T15:46:29;23.80;50.60
26821;DHT22;37186;51.394;5.454;2023-05-29T15:49:30;23.90;50.30
26821;DHT22;37186;51.394;5.454;2023-05-29T15:52:31;23.90;51.40
26821;DHT22;37186;51.394;5.454;2023-05-29T15:55:31;23.90;51.10
26821;DHT22;37186;51.394;5.454;2023-05-29T15:58:32;24.00;52.30
26821;DHT22;37186;51.394;5.454;2023-05-29T16:01:32;24.00;51.10
26821;DHT22;37186;51.394;5.454;2023-05-29T16:04:33;24.00;51.50
26821;DHT22;37186;51.394;5.454;2023-05-29T16:07:34;24.10;48.30
26821;DHT22;37186;51.394;5.454;2023-05-29T16:10:35;24.20;50.30
26821;DHT22;37186;51.394;5.454;2023-05-29T16:13:36;24.20;49.20
26821;DHT22;37186;51.394;5.454;2023-05-29T16:16:37;24.20;50.50
26821;DHT22;37186;51.394;5.454;2023-05-29T16:19:38;24.20;50.40
26821;DHT22;37186;51.394;5.454;2023-05-29T16:22:40;24.20;50.00
26821;DHT22;37186;51.394;5.454;2023-05-29T16:25:40;24.20;50.10
26821;DHT22;37186;51.394;5.454;2023-05-29T16:28:41;24.10;50.00
26821;DHT22;37186;51.394;5.454;2023-05-29T16:31:41;24.10;48.90
26821;DHT22;37186;51.394;5.454;2023-05-29T16:34:42;24.10;49.10
26821;DHT22;37186;51.394;5.454;2023-05-29T16:37:43;24.10;49.80
26821;DHT22;37186;51.394;5.454;2023-05-29T16:40:43;24.20;49.80
26821;DHT22;37186;51.394;5.454;2023-05-29T16:43:44;24.30;50.40
26821;DHT22;37186;51.394;5.454;2023-05-29T16:46:44;24.40;49.40
26821;DHT22;37186;51.394;5.454;2023-05-29T16:49:45;24.50;49.90
26821;DHT22;37186;51.394;5.454;2023-05-29T16:52:46;24.60;50.30
26821;DHT22;37186;51.394;5.454;2023-05-29T16:55:47;24.80;49.30
26821;DHT22;37186;51.394;5.454;2023-05-29T16:58:47;25.00;50.00
26821;DHT22;37186;51.394;5.454;2023-05-29T17:01:48;25.20;49.80
26821;DHT22;37186;51.394;5.454;2023-05-29T17:04:48;25.40;50.10
26821;DHT22;37186;51.394;5.454;2023-05-29T17:07:49;25.50;48.60
26821;DHT22;37186;51.394;5.454;2023-05-29T17:10:49;25.60;48.50
26821;DHT22;37186;51.394;5.454;2023-05-29T17:13:50;25.70;48.30
26821;DHT22;37186;51.394;5.454;2023-05-29T17:16:50;25.70;49.30
26821;DHT22;37186;51.394;5.454;2023-05-29T17:19:51;25.80;46.80
26821;DHT22;37186;51.394;5.454;2023-05-29T17:22:52;25.90;49.40
26821;DHT22;37186;51.394;5.454;2023-05-29T17:25:52;26.00;49.30
26821;DHT22;37186;51.394;5.454;2023-05-29T17:28:53;26.20;50.30
26821;DHT22;37186;51.394;5.454;2023-05-29T17:31:53;26.40;50.40
26821;DHT22;37186;51.394;5.454;2023-05-29T17:34:54;26.60;50.10
26821;DHT22;37186;51.394;5.454;2023-05-29T17:37:54;26.80;50.60
26821;DHT22;37186;51.394;5.454;2023-05-29T17:40:55;27.10;50.30
26821;DHT22;37186;51.394;5.454;2023-05-29T17:43:55;27.20;50.40
26821;DHT22;37186;51.394;5.454;2023-05-29T17:46:56;27.40;49.80
26821;DHT22;37186;51.394;5.454;2023-05-29T17:49:57;27.50;48.50
26821;DHT22;37186;51.394;5.454;2023-05-29T17:52:57;27.60;48.80
26821;DHT22;37186;51.394;5.454;2023-05-29T17:55:59;27.70;48.40
26821;DHT22;37186;51.394;5.454;2023-05-29T17:59:00;27.70;47.90
26821;DHT22;37186;51.394;5.454;2023-05-29T18:02:00;27.70;48.20
26821;DHT22;37186;51.394;5.454;2023-05-29T18:05:01;27.60;44.90
26821;DHT22;37186;51.394;5.454;2023-05-29T18:08:01;27.60;46.50
26821;DHT22;37186;51.394;5.454;2023-05-29T18:11:02;27.50;45.70
26821;DHT22;37186;51.394;5.454;2023-05-29T18:14:03;27.50;46.90
26821;DHT22;37186;51.394;5.454;2023-05-29T18:17:03;27.40;44.30
26821;DHT22;37186;51.394;5.454;2023-05-29T18:20:05;27.20;46.50
26821;DHT22;37186;51.394;5.454;2023-05-29T18:23:06;27.10;46.40
26821;DHT22;37186;51.394;5.454;2023-05-29T18:26:07;27.00;44.30
26821;DHT22;37186;51.394;5.454;2023-05-29T18:29:08;26.80;44.40
26821;DHT22;37186;51.394;5.454;2023-05-29T18:32:08;26.70;45.50
26821;DHT22;37186;51.394;5.454;2023-05-29T18:35:09;26.50;44.80
26821;DHT22;37186;51.394;5.454;2023-05-29T18:38:10;26.30;44.00
26821;DHT22;37186;51.394;5.454;2023-05-29T18:41:12;26.20;44.40
26821;DHT22;37186;51.394;5.454;2023-05-29T18:44:12;26.00;44.70
26821;DHT22;37186;51.394;5.454;2023-05-29T18:47:13;25.80;44.80
26821;DHT22;37186;51.394;5.454;2023-05-29T18:50:15;25.70;43.90
26821;DHT22;37186;51.394;5.454;2023-05-29T18:53:16;25.60;44.40
26821;DHT22;37186;51.394;5.454;2023-05-29T18:56:16;25.40;42.90
26821;DHT22;37186;51.394;5.454;2023-05-29T18:59:17;25.20;43.70
26821;DHT22;37186;51.394;5.454;2023-05-29T19:02:17;25.10;43.20
26821;DHT22;37186;51.394;5.454;2023-05-29T19:05:18;24.90;43.50
26821;DHT22;37186;51.394;5.454;2023-05-29T19:08:19;24.80;43.90
26821;DHT22;37186;51.394;5.454;2023-05-29T19:11:21;24.70;44.20
26821;DHT22;37186;51.394;5.454;2023-05-29T19:14:22;24.50;44.40
26821;DHT22;37186;51.394;5.454;2023-05-29T19:17:22;24.40;44.20
26821;DHT22;37186;51.394;5.454;2023-05-29T19:20:23;24.30;44.20